This is the latest recevied weather packets stored in our database for station/object YN9ZMM-13. If no packets are shown the sender has not sent any weather packets the latest 10 day(s).
| Time | Temp. | Humidity | Pressure | Rain* | Wind** | Luminosity | Snow |
|---|---|---|---|---|---|---|---|
| 1778032425 | 23.89° C | 62% | 1013 hPa | 0 mm | - | - | - |
| 1778031824 | 23.89° C | 62% | 1013 hPa | 0 mm | - | - | - |
| 1778031224 | 23.33° C | 62% | 1013 hPa | 0 mm | - | - | - |
| 1778030624 | 22.78° C | 62% | 1012 hPa | 0 mm | - | - | - |
| 1778030024 | 25° C | 66% | 1012 hPa | 0 mm | - | - | - |
| 1778029423 | 24.44° C | 66% | 1012 hPa | 0 mm | - | - | - |
| 1778028823 | 25° C | 66% | 1012 hPa | 0 mm | - | - | - |
| 1778028223 | 25° C | 67% | 1012 hPa | 0 mm | - | - | - |
| 1778027622 | 25.56° C | 67% | 1012 hPa | 0 mm | - | - | - |
| 1778027022 | 27.78° C | 55% | 1011 hPa | 0 mm | - | - | - |
| 1778026421 | 27.22° C | 55% | 1011 hPa | 0 mm | - | - | - |
| 1778025821 | 27.22° C | 55% | 1011 hPa | 0 mm | - | - | - |
| 1778025221 | 27.78° C | 56% | 1011 hPa | 0 mm | - | - | - |
| 1778024621 | 28.33° C | 56% | 1011 hPa | 0 mm | - | - | - |
| 1778024021 | 30.56° C | 39% | 1011 hPa | 0 mm | - | - | - |
| 1778023420 | 30° C | 39% | 1010 hPa | 0 mm | - | - | - |
| 1778022820 | 29.44° C | 39% | 1010 hPa | 0 mm | - | - | - |
| 1778022220 | 28.89° C | 39% | 1010 hPa | 0 mm | - | - | - |
| 1778021620 | 28.33° C | 39% | 1010 hPa | 0 mm | - | - | - |
| 1778021019 | 27.78° C | 39% | 1010 hPa | 0 mm | - | - | - |
| 1778020419 | 27.78° C | 39% | 1010 hPa | 0 mm | - | - | - |
| 1778019818 | 32.78° C | 33% | 1009 hPa | 0 mm | - | - | - |
| 1778019218 | 32.22° C | 33% | 1009 hPa | 0 mm | - | - | - |
| 1778018618 | 31.67° C | 33% | 1009 hPa | 0 mm | - | - | - |
| 1778018018 | 31.11° C | 33% | 1009 hPa | 0 mm | - | - | - |
* Rain latest hour (hover to see other rain measurements)
** Current wind speed in m/s (hover to see current wind gust speed)